Time;durP1;ratioP1;P1;durP2;ratioP2;P2;SDS_P1;SDS_P2;PMS_P1;PMS_P2;Temp;Humidity;BMP_temperature;BMP_pressure;BME280_temperature;BME280_humidity;BME280_pressure;Samples;Min_cycle;Max_cycle;Signal;HPM_P1;HPM_P2
2022/09/07 00:01:29;;;;;;;6.32;3.00;;;;;;;;;;5026964;28;20017;-74
2022/09/07 00:04:15;;;;;;;6.03;3.05;;;;;;;;;;5027678;28;20061;-76
2022/09/07 00:07:00;;;;;;;6.50;3.20;;;;;;;;;;5026354;28;20560;-77
2022/09/07 00:09:46;;;;;;;7.05;2.92;;;;;;;;;;5027129;28;20026;-78
2022/09/07 00:12:31;;;;;;;7.78;3.63;;;;;;;;;;5026298;28;20041;-79
2022/09/07 00:15:17;;;;;;;10.10;2.72;;;;;;;;;;5023357;28;20033;-77
2022/09/07 00:18:03;;;;;;;8.40;2.63;;;;;;;;;;5027988;28;20026;-71
2022/09/07 00:20:59;;;;;;;9.82;3.42;;;;;;;;;;5032205;28;20026;-76
2022/09/07 00:23:46;;;;;;;8.32;3.40;;;;;;;;;;5024484;28;20458;-76
2022/09/07 00:26:32;;;;;;;14.05;3.75;;;;;;;;;;5028293;28;20072;-77
2022/09/07 00:29:17;;;;;;;5.50;2.15;;;;;;;;;;5024587;28;20049;-76
2022/09/07 00:32:03;;;;;;;6.40;2.90;;;;;;;;;;5012778;28;20060;-77
2022/09/07 00:34:49;;;;;;;8.70;3.10;;;;;;;;;;5023463;28;20033;-77
2022/09/07 00:37:34;;;;;;;7.70;3.28;;;;;;;;;;5023864;28;20056;-73
2022/09/07 00:40:20;;;;;;;5.53;2.85;;;;;;;;;;5027677;28;20529;-70
2022/09/07 00:43:06;;;;;;;10.27;2.67;;;;;;;;;;5030663;28;20064;-70
2022/09/07 00:45:51;;;;;;;7.75;2.70;;;;;;;;;;5013882;28;20044;-69
2022/09/07 00:48:55;;;;;;;6.05;2.60;;;;;;;;;;5025410;28;20041;-69
2022/09/07 00:51:51;;;;;;;5.78;2.10;;;;;;;;;;5023058;28;20056;-70
2022/09/07 00:54:44;;;;;;;7.13;2.63;;;;;;;;;;5018466;28;20036;-73
2022/09/07 00:57:30;;;;;;;5.05;2.75;;;;;;;;;;5027350;28;20029;-71
2022/09/07 01:00:15;;;;;;;4.65;2.72;;;;;;;;;;5021800;28;20033;-77
2022/09/07 01:03:02;;;;;;;4.95;2.65;;;;;;;;;;5016489;28;20117;-77
2022/09/07 01:05:50;;;;;;;10.45;3.03;;;;;;;;;;5023784;28;20428;-77
2022/09/07 01:08:36;;;;;;;7.23;2.47;;;;;;;;;;5024657;28;20025;-78
2022/09/07 01:11:22;;;;;;;5.10;2.40;;;;;;;;;;5026306;28;20049;-79
2022/09/07 01:14:09;;;;;;;6.63;2.63;;;;;;;;;;5029317;28;20046;-68
2022/09/07 01:17:13;;;;;;;8.20;2.80;;;;;;;;;;5019993;28;20095;-70
2022/09/07 01:20:08;;;;;;;6.85;2.45;;;;;;;;;;5025892;28;20018;-70
2022/09/07 01:22:59;;;;;;;5.68;2.63;;;;;;;;;;5029358;28;20314;-69
2022/09/07 01:25:57;;;;;;;6.00;2.28;;;;;;;;;;5020882;28;20038;-69
2022/09/07 01:28:46;;;;;;;5.95;2.35;;;;;;;;;;5017035;28;20113;-69
2022/09/07 01:31:34;;;;;;;4.45;1.90;;;;;;;;;;5026668;28;20029;-70
2022/09/07 01:34:22;;;;;;;3.72;2.30;;;;;;;;;;5018164;28;20044;-73
2022/09/07 01:37:26;;;;;;;6.32;2.53;;;;;;;;;;5024664;28;20033;-75
2022/09/07 01:40:15;;;;;;;4.25;2.03;;;;;;;;;;5022248;28;20473;-75
2022/09/07 01:43:05;;;;;;;6.53;2.30;;;;;;;;;;5028930;28;20045;-75
2022/09/07 01:45:52;;;;;;;6.25;3.53;;;;;;;;;;5021859;28;20088;-74
2022/09/07 01:48:39;;;;;;;5.97;2.58;;;;;;;;;;5016978;28;20112;-75
2022/09/07 01:51:28;;;;;;;4.13;1.90;;;;;;;;;;5016104;28;20061;-75
2022/09/07 01:54:17;;;;;;;5.10;1.98;;;;;;;;;;5025996;28;20037;-67
2022/09/07 01:57:15;;;;;;;5.43;2.33;;;;;;;;;;5025346;28;20045;-67
2022/09/07 02:00:09;;;;;;;4.05;2.35;;;;;;;;;;5028595;28;20440;-67
2022/09/07 02:02:58;;;;;;;10.10;2.45;;;;;;;;;;5025164;28;20068;-68
2022/09/07 02:06:10;;;;;;;7.67;2.77;;;;;;;;;;5020992;28;20037;-67
2022/09/07 02:08:57;;;;;;;9.45;3.03;;;;;;;;;;5012559;28;20376;-68
2022/09/07 02:11:46;;;;;;;3.78;2.58;;;;;;;;;;5020829;28;20053;-77
2022/09/07 02:14:39;;;;;;;4.97;2.40;;;;;;;;;;5021028;28;20515;-78
2022/09/07 02:17:32;;;;;;;3.35;1.65;;;;;;;;;;5021125;28;20041;-78
2022/09/07 02:20:20;;;;;;;3.63;2.10;;;;;;;;;;5029854;28;20033;-77
2022/09/07 02:23:12;;;;;;;6.80;2.00;;;;;;;;;;5029364;28;20515;-76
2022/09/07 02:26:05;;;;;;;3.78;1.90;;;;;;;;;;5024593;28;20041;-79
2022/09/07 02:28:51;;;;;;;4.30;1.60;;;;;;;;;;5030608;28;20025;-74
2022/09/07 02:31:37;;;;;;;6.68;2.50;;;;;;;;;;5022067;28;20029;-68
2022/09/07 02:34:22;;;;;;;4.30;2.03;;;;;;;;;;5033710;28;20035;-69
2022/09/07 02:37:08;;;;;;;8.93;2.45;;;;;;;;;;5018342;28;20029;-68
2022/09/07 02:39:54;;;;;;;5.70;2.20;;;;;;;;;;5015602;28;20026;-70
2022/09/07 02:42:40;;;;;;;6.45;2.47;;;;;;;;;;5023349;28;20380;-67
2022/09/07 02:45:29;;;;;;;8.27;2.40;;;;;;;;;;5030263;28;20033;-69
2022/09/07 02:48:15;;;;;;;;;;;;;;;;;;5030314;28;20054;-74
2022/09/07 02:51:10;;;;;;;6.03;2.20;;;;;;;;;;5030704;28;19920;-74
2022/09/07 02:54:02;;;;;;;6.65;2.35;;;;;;;;;;5030921;28;20366;-75
2022/09/07 02:56:47;;;;;;;5.00;2.33;;;;;;;;;;5029626;28;20037;-74
2022/09/07 02:59:33;;;;;;;7.95;2.70;;;;;;;;;;5021734;28;21518;-74
2022/09/07 03:02:22;;;;;;;7.15;2.63;;;;;;;;;;5030448;28;20065;-75
2022/09/07 03:05:08;;;;;;;;;;;;;;;;;;5023306;28;20045;-75
2022/09/07 03:07:58;;;;;;;6.15;2.30;;;;;;;;;;5016925;28;19935;-70
2022/09/07 03:10:43;;;;;;;6.40;2.97;;;;;;;;;;5028418;28;20357;-70
2022/09/07 03:13:29;;;;;;;5.35;2.83;;;;;;;;;;5032129;28;20033;-69
2022/09/07 03:16:17;;;;;;;6.32;3.30;;;;;;;;;;5029533;28;20033;-70
2022/09/07 03:19:03;;;;;;;7.47;2.60;;;;;;;;;;5029398;28;20091;-70
2022/09/07 03:21:49;;;;;;;7.72;2.92;;;;;;;;;;5034302;28;20044;-69
2022/09/07 03:24:35;;;;;;;6.65;3.30;;;;;;;;;;5032278;28;20022;-74
2022/09/07 03:27:21;;;;;;;6.70;2.47;;;;;;;;;;5028432;28;20190;-77
2022/09/07 03:30:07;;;;;;;5.72;2.35;;;;;;;;;;5020040;28;20025;-77
2022/09/07 03:32:53;;;;;;;9.10;3.42;;;;;;;;;;5023907;28;20396;-79
2022/09/07 03:35:38;;;;;;;5.90;2.45;;;;;;;;;;5017881;28;20076;-78
2022/09/07 03:38:24;;;;;;;6.95;2.78;;;;;;;;;;5016914;28;20034;-77
2022/09/07 03:41:10;;;;;;;5.10;2.78;;;;;;;;;;5019003;28;20093;-68
2022/09/07 03:43:55;;;;;;;7.28;2.60;;;;;;;;;;5031551;28;20378;-70
2022/09/07 03:46:41;;;;;;;6.28;2.13;;;;;;;;;;5029946;28;20044;-70
2022/09/07 03:49:27;;;;;;;8.02;2.83;;;;;;;;;;5032287;28;20093;-70
2022/09/07 03:52:12;;;;;;;7.30;2.42;;;;;;;;;;5022245;28;20030;-71
2022/09/07 03:54:58;;;;;;;4.05;2.25;;;;;;;;;;5026481;28;20037;-72
2022/09/07 03:57:43;;;;;;;6.35;2.28;;;;;;;;;;5029230;28;20029;-72
2022/09/07 04:00:29;;;;;;;7.35;2.28;;;;;;;;;;5023127;28;20040;-69
2022/09/07 04:03:15;;;;;;;9.13;2.63;;;;;;;;;;5030869;28;20472;-79
2022/09/07 04:06:00;;;;;;;6.88;3.20;;;;;;;;;;5024373;28;20034;-77
2022/09/07 04:08:46;;;;;;;5.43;2.92;;;;;;;;;;5013596;28;20331;-77
2022/09/07 04:11:32;;;;;;;4.50;2.40;;;;;;;;;;5023172;28;20025;-78
2022/09/07 04:14:18;;;;;;;7.65;3.00;;;;;;;;;;5025056;28;20025;-77
2022/09/07 04:17:03;;;;;;;8.68;3.15;;;;;;;;;;5030054;28;20378;-70
2022/09/07 04:19:49;;;;;;;6.47;3.13;;;;;;;;;;5014375;28;20033;-69
2022/09/07 04:22:34;;;;;;;6.40;2.60;;;;;;;;;;5030966;28;20063;-77
2022/09/07 04:25:20;;;;;;;6.53;3.35;;;;;;;;;;5027172;28;20034;-78
2022/09/07 04:28:05;;;;;;;8.32;3.13;;;;;;;;;;5028683;28;20449;-78
2022/09/07 04:30:51;;;;;;;6.88;2.70;;;;;;;;;;5024909;28;20033;-77
2022/09/07 04:33:37;;;;;;;6.78;2.58;;;;;;;;;;5026845;28;20165;-77
2022/09/07 04:36:25;;;;;;;6.38;2.78;;;;;;;;;;5029154;28;20044;-74
2022/09/07 04:39:11;;;;;;;4.93;2.67;;;;;;;;;;5018292;28;20033;-77
2022/09/07 04:41:56;;;;;;;5.22;2.92;;;;;;;;;;5019928;28;20389;-78
2022/09/07 04:44:42;;;;;;;5.22;2.72;;;;;;;;;;5029143;28;20038;-78
2022/09/07 04:47:29;;;;;;;6.38;2.58;;;;;;;;;;5028799;28;20044;-79
2022/09/07 04:50:15;;;;;;;5.90;2.65;;;;;;;;;;5020972;28;20389;-78
2022/09/07 04:53:01;;;;;;;5.40;2.75;;;;;;;;;;5024185;28;20144;-77
2022/09/07 04:55:47;;;;;;;7.05;2.95;;;;;;;;;;5021521;28;20163;-75
2022/09/07 04:58:32;;;;;;;9.15;2.50;;;;;;;;;;5027490;28;20033;-69
2022/09/07 05:01:20;;;;;;;4.97;2.50;;;;;;;;;;5015699;28;20038;-69
2022/09/07 05:04:05;;;;;;;5.93;3.35;;;;;;;;;;5028059;28;20033;-69
2022/09/07 05:06:52;;;;;;;4.10;2.65;;;;;;;;;;5025677;28;20142;-69
2022/09/07 05:09:38;;;;;;;6.18;2.85;;;;;;;;;;5017114;28;20041;-69
2022/09/07 05:12:23;;;;;;;6.45;3.03;;;;;;;;;;5028813;28;20061;-69
2022/09/07 05:15:09;;;;;;;8.13;2.92;;;;;;;;;;5028139;28;20483;-75
2022/09/07 05:17:55;;;;;;;6.75;2.72;;;;;;;;;;5018934;28;20053;-70
2022/09/07 05:20:41;;;;;;;7.57;3.28;;;;;;;;;;5026049;28;20044;-69
2022/09/07 05:23:26;;;;;;;8.02;3.25;;;;;;;;;;5023315;28;20082;-69
2022/09/07 05:26:12;;;;;;;8.65;3.33;;;;;;;;;;5021092;28;20380;-67
2022/09/07 05:29:01;;;;;;;7.47;2.70;;;;;;;;;;5013490;28;20473;-68
2022/09/07 05:31:47;;;;;;;7.45;3.20;;;;;;;;;;5033789;28;20375;-74
2022/09/07 05:34:32;;;;;;;5.75;2.75;;;;;;;;;;5020272;28;20442;-79
2022/09/07 05:37:18;;;;;;;8.80;3.10;;;;;;;;;;5013501;28;20029;-77
2022/09/07 05:40:04;;;;;;;8.35;3.10;;;;;;;;;;5023520;28;20032;-75
2022/09/07 05:42:49;;;;;;;7.05;3.67;;;;;;;;;;5021118;28;20526;-78
2022/09/07 05:45:35;;;;;;;11.02;3.78;;;;;;;;;;5030239;28;20059;-80
2022/09/07 05:48:20;;;;;;;8.05;3.30;;;;;;;;;;5016255;28;20033;-77
2022/09/07 05:51:06;;;;;;;7.25;3.28;;;;;;;;;;5027677;28;20037;-74
2022/09/07 05:53:52;;;;;;;6.90;3.20;;;;;;;;;;5020393;28;20038;-70
2022/09/07 05:56:37;;;;;;;6.35;3.42;;;;;;;;;;5020256;28;20091;-67
2022/09/07 05:59:23;;;;;;;6.15;3.60;;;;;;;;;;5019848;28;20056;-68
2022/09/07 06:02:11;;;;;;;6.18;3.15;;;;;;;;;;5020571;28;20022;-68
2022/09/07 06:04:57;;;;;;;8.95;3.17;;;;;;;;;;5012324;28;20037;-72
2022/09/07 06:07:46;;;;;;;8.85;3.15;;;;;;;;;;5017125;28;20053;-71
2022/09/07 06:10:35;;;;;;;7.10;3.38;;;;;;;;;;5019099;28;20022;-75
2022/09/07 06:13:21;;;;;;;10.52;4.28;;;;;;;;;;5019595;28;20034;-70
2022/09/07 06:16:07;;;;;;;8.25;3.17;;;;;;;;;;5019320;28;20040;-73
2022/09/07 06:18:53;;;;;;;6.40;3.00;;;;;;;;;;5018470;28;20029;-71
2022/09/07 06:21:39;;;;;;;6.00;3.28;;;;;;;;;;5016687;28;20031;-71
2022/09/07 06:24:24;;;;;;;10.13;3.55;;;;;;;;;;5015355;28;20041;-71
2022/09/07 06:27:10;;;;;;;7.32;2.60;;;;;;;;;;5014888;28;20044;-79
2022/09/07 06:29:58;;;;;;;7.45;3.22;;;;;;;;;;5018269;28;20022;-75
2022/09/07 06:32:44;;;;;;;9.68;2.55;;;;;;;;;;5013313;28;20117;-73
2022/09/07 06:35:29;;;;;;;6.90;2.85;;;;;;;;;;5016139;28;20502;-71
2022/09/07 06:38:15;;;;;;;8.13;3.35;;;;;;;;;;5016684;28;20037;-74
2022/09/07 06:41:04;;;;;;;6.57;2.50;;;;;;;;;;5023379;28;20057;-74
2022/09/07 06:43:50;;;;;;;;;;;;;;;;;;5019316;28;20037;-73
2022/09/07 06:46:35;;;;;;;7.22;3.20;;;;;;;;;;5013168;28;19921;-74
2022/09/07 06:49:22;;;;;;;6.38;2.90;;;;;;;;;;5018592;28;20466;-81
2022/09/07 06:52:08;;;;;;;6.60;2.60;;;;;;;;;;5012225;28;20045;-80
2022/09/07 06:54:53;;;;;;;7.10;2.90;;;;;;;;;;5011053;28;20113;-79
2022/09/07 06:57:39;;;;;;;6.95;3.10;;;;;;;;;;5017175;28;20021;-79
2022/09/07 07:00:24;;;;;;;10.52;3.42;;;;;;;;;;5021422;28;20037;-79
2022/09/07 07:03:10;;;;;;;10.63;2.92;;;;;;;;;;5020858;28;20104;-72
2022/09/07 07:05:56;;;;;;;9.02;3.55;;;;;;;;;;5013694;28;20029;-74
2022/09/07 07:08:41;;;;;;;8.32;2.45;;;;;;;;;;5015757;28;20490;-76
2022/09/07 07:11:27;;;;;;;7.18;2.58;;;;;;;;;;5022271;28;20044;-73
2022/09/07 07:14:13;;;;;;;9.27;2.67;;;;;;;;;;5019954;28;20044;-76
2022/09/07 07:16:58;;;;;;;5.80;2.65;;;;;;;;;;5017100;28;20554;-74
2022/09/07 07:19:44;;;;;;;8.95;2.75;;;;;;;;;;5027199;28;20034;-71
2022/09/07 07:22:30;;;;;;;7.35;2.75;;;;;;;;;;5021979;28;20087;-82
2022/09/07 07:25:15;;;;;;;11.73;2.33;;;;;;;;;;5017363;28;20504;-71
2022/09/07 07:28:02;;;;;;;7.88;2.50;;;;;;;;;;5015969;28;20029;-72
2022/09/07 07:30:48;;;;;;;7.30;2.20;;;;;;;;;;5016631;28;20022;-72
2022/09/07 07:33:34;;;;;;;5.80;2.17;;;;;;;;;;5017907;28;20082;-71
2022/09/07 07:36:24;;;;;;;4.97;2.30;;;;;;;;;;5015000;28;20030;-72
2022/09/07 07:39:10;;;;;;;10.82;2.20;;;;;;;;;;5019564;28;20261;-72
2022/09/07 07:41:55;;;;;;;9.65;2.25;;;;;;;;;;5018853;28;20040;-78
2022/09/07 07:44:41;;;;;;;8.25;2.35;;;;;;;;;;5019491;28;20784;-79
2022/09/07 07:47:27;;;;;;;12.27;2.50;;;;;;;;;;5020637;28;20092;-79
2022/09/07 07:50:13;;;;;;;6.53;2.60;;;;;;;;;;5026170;28;20440;-80
2022/09/07 07:52:59;;;;;;;8.02;2.42;;;;;;;;;;5016914;28;20449;-77
2022/09/07 07:55:45;;;;;;;7.60;2.28;;;;;;;;;;5021462;28;20121;-80
2022/09/07 07:58:31;;;;;;;7.32;2.05;;;;;;;;;;5019794;28;20037;-74
2022/09/07 08:01:17;;;;;;;8.88;4.18;;;;;;;;;;5023925;28;20041;-69
2022/09/07 08:04:02;;;;;;;7.63;2.25;;;;;;;;;;5020602;28;20033;-70
2022/09/07 08:06:48;;;;;;;6.55;3.00;;;;;;;;;;5023244;28;20037;-71
2022/09/07 08:09:35;;;;;;;5.00;2.42;;;;;;;;;;5024602;28;20029;-71
2022/09/07 08:12:21;;;;;;;9.30;2.95;;;;;;;;;;5020578;28;20032;-68
2022/09/07 08:15:07;;;;;;;6.10;2.40;;;;;;;;;;5021404;28;20030;-72
2022/09/07 08:17:52;;;;;;;6.50;2.22;;;;;;;;;;5023294;28;20108;-74
2022/09/07 08:20:39;;;;;;;7.60;2.45;;;;;;;;;;5018962;28;20029;-80
2022/09/07 08:23:24;;;;;;;12.70;2.22;;;;;;;;;;5015044;28;20579;-79
2022/09/07 08:26:10;;;;;;;12.07;2.75;;;;;;;;;;5017854;28;20437;-80
2022/09/07 08:28:56;;;;;;;5.88;2.33;;;;;;;;;;5021351;28;20329;-78
2022/09/07 08:31:43;;;;;;;13.85;3.03;;;;;;;;;;5015454;28;20057;-78
2022/09/07 08:34:28;;;;;;;8.57;2.42;;;;;;;;;;5015864;28;20025;-80
2022/09/07 08:37:14;;;;;;;9.05;2.40;;;;;;;;;;5020220;28;20469;-75
2022/09/07 08:39:59;;;;;;;9.40;2.40;;;;;;;;;;5023533;28;20493;-75
2022/09/07 08:43:03;;;;;;;7.88;2.50;;;;;;;;;;5017328;28;20044;-76
2022/09/07 08:45:50;;;;;;;7.90;2.17;;;;;;;;;;5016052;28;20045;-74
2022/09/07 08:48:37;;;;;;;9.68;2.65;;;;;;;;;;5017193;28;20116;-74
2022/09/07 08:51:29;;;;;;;6.93;2.70;;;;;;;;;;5022636;28;20026;-75
2022/09/07 08:54:16;;;;;;;13.73;2.70;;;;;;;;;;5017169;28;20022;-71
2022/09/07 08:57:02;;;;;;;8.60;2.78;;;;;;;;;;5012404;28;20025;-73
2022/09/07 08:59:52;;;;;;;7.60;2.53;;;;;;;;;;5021382;28;20432;-73
2022/09/07 09:02:38;;;;;;;8.25;2.72;;;;;;;;;;5023271;28;20029;-73
2022/09/07 09:05:24;;;;;;;8.52;2.40;;;;;;;;;;5015528;28;20395;-72
2022/09/07 09:08:13;;;;;;;6.63;2.17;;;;;;;;;;5024033;28;20416;-73
2022/09/07 09:10:58;;;;;;;;;;;;;;;;;;5020662;28;20030;-74
2022/09/07 09:13:57;;;;;;;8.63;2.72;;;;;;;;;;5020911;28;19917;-77
2022/09/07 09:16:44;;;;;;;7.97;2.05;;;;;;;;;;5023565;28;20033;-72
2022/09/07 09:19:54;;;;;;;6.93;2.05;;;;;;;;;;5013188;28;20022;-71
2022/09/07 09:22:39;;;;;;;8.85;2.58;;;;;;;;;;5014738;28;20025;-71
2022/09/07 09:25:32;;;;;;;9.95;2.72;;;;;;;;;;5016958;28;20453;-70
2022/09/07 09:28:18;;;;;;;7.65;2.25;;;;;;;;;;5020249;28;20396;-70
2022/09/07 09:31:03;;;;;;;4.82;2.08;;;;;;;;;;5016367;28;20431;-78
2022/09/07 09:34:04;;;;;;;12.32;2.72;;;;;;;;;;5012882;28;20424;-75
2022/09/07 09:36:51;;;;;;;6.50;2.33;;;;;;;;;;5015462;28;20670;-73
2022/09/07 09:39:37;;;;;;;10.30;2.30;;;;;;;;;;5016160;28;20030;-68
2022/09/07 09:42:23;;;;;;;8.75;2.58;;;;;;;;;;5014543;28;20029;-71
2022/09/07 09:45:15;;;;;;;8.18;1.85;;;;;;;;;;5013144;28;20037;-69
2022/09/07 09:48:01;;;;;;;8.25;3.60;;;;;;;;;;5013384;28;20118;-69
2022/09/07 09:50:49;;;;;;;7.53;2.30;;;;;;;;;;5014876;28;20057;-74
2022/09/07 09:53:40;;;;;;;9.15;3.33;;;;;;;;;;5014940;28;20036;-74
2022/09/07 09:56:42;;;;;;;8.50;2.78;;;;;;;;;;5019354;28;20032;-76
2022/09/07 09:59:28;;;;;;;7.95;2.78;;;;;;;;;;5015583;28;20029;-78
2022/09/07 10:02:26;;;;;;;8.30;3.70;;;;;;;;;;5015240;28;20030;-73
2022/09/07 10:05:38;;;;;;;11.47;5.03;;;;;;;;;;5012260;28;20041;-72
2022/09/07 10:08:24;;;;;;;5.07;3.40;;;;;;;;;;5022504;28;20338;-67
2022/09/07 10:11:14;;;;;;;6.82;3.35;;;;;;;;;;5017906;28;20033;-65
2022/09/07 10:13:59;;;;;;;7.78;3.38;;;;;;;;;;5022225;28;20079;-65
2022/09/07 10:16:45;;;;;;;17.42;7.32;;;;;;;;;;5018031;28;20108;-69
2022/09/07 10:19:36;;;;;;;11.20;5.88;;;;;;;;;;5019705;28;20484;-69
2022/09/07 10:22:22;;;;;;;12.63;6.60;;;;;;;;;;5021136;28;20033;-70
2022/09/07 10:25:26;;;;;;;12.35;6.05;;;;;;;;;;5019003;28;20068;-65
2022/09/07 10:28:22;;;;;;;9.95;6.13;;;;;;;;;;5013374;28;20104;-64
2022/09/07 10:31:11;;;;;;;10.85;7.00;;;;;;;;;;5025710;28;20086;-79
2022/09/07 10:34:15;;;;;;;8.32;5.90;;;;;;;;;;5026303;28;20102;-75
2022/09/07 10:37:03;;;;;;;8.25;4.55;;;;;;;;;;5017380;28;20116;-75
2022/09/07 10:40:15;;;;;;;7.85;4.35;;;;;;;;;;5030869;28;20033;-76
2022/09/07 10:43:13;;;;;;;9.25;4.00;;;;;;;;;;5008873;28;20068;-74
2022/09/07 10:46:17;;;;;;;5.37;2.63;;;;;;;;;;5022636;28;20108;-70
2022/09/07 10:49:18;;;;;;;6.82;2.53;;;;;;;;;;5022527;28;20389;-74
2022/09/07 10:52:33;;;;;;;4.40;2.35;;;;;;;;;;5018218;28;20381;-75
2022/09/07 10:55:32;;;;;;;5.03;2.17;;;;;;;;;;5010082;28;20037;-74
2022/09/07 10:58:24;;;;;;;6.45;3.33;;;;;;;;;;5018564;28;20033;-72
2022/09/07 11:01:28;;;;;;;9.57;2.95;;;;;;;;;;5024561;28;20029;-72
2022/09/07 11:04:35;;;;;;;5.85;3.20;;;;;;;;;;5029334;28;20038;-73
2022/09/07 11:07:36;;;;;;;9.02;2.85;;;;;;;;;;5024212;28;20117;-78
2022/09/07 11:10:21;;;;;;;6.00;2.65;;;;;;;;;;5024364;28;20034;-76
2022/09/07 11:13:10;;;;;;;7.10;2.88;;;;;;;;;;5019751;28;20037;-76
2022/09/07 11:16:00;;;;;;;10.07;3.55;;;;;;;;;;5019943;28;20121;-72
2022/09/07 11:18:54;;;;;;;10.18;3.40;;;;;;;;;;5016955;28;20104;-77
2022/09/07 11:22:09;;;;;;;10.13;3.95;;;;;;;;;;5019803;28;20071;-65
2022/09/07 11:25:03;;;;;;;10.07;3.47;;;;;;;;;;5009115;28;20034;-72
2022/09/07 11:27:54;;;;;;;14.68;3.35;;;;;;;;;;5025256;28;20485;-71
2022/09/07 11:30:42;;;;;;;9.65;2.55;;;;;;;;;;5019645;28;20096;-71
2022/09/07 11:33:38;;;;;;;7.55;3.40;;;;;;;;;;5028642;28;20092;-72
2022/09/07 11:36:25;;;;;;;10.25;2.80;;;;;;;;;;5016831;28;20539;-72
2022/09/07 11:39:18;;;;;;;7.90;2.75;;;;;;;;;;5023906;28;20056;-67
2022/09/07 11:42:09;;;;;;;6.22;2.72;;;;;;;;;;5023861;28;20429;-63
2022/09/07 11:45:07;;;;;;;7.88;2.30;;;;;;;;;;5021639;28;20042;-66
2022/09/07 11:48:04;;;;;;;7.37;2.80;;;;;;;;;;5023688;28;20381;-62
2022/09/07 11:50:52;;;;;;;10.02;3.20;;;;;;;;;;5023038;28;20022;-63
2022/09/07 11:53:41;;;;;;;4.47;2.40;;;;;;;;;;5018131;28;20033;-64
2022/09/07 11:56:27;;;;;;;;;;;;;;;;;;5015430;28;20104;-65
2022/09/07 11:59:37;;;;;;;5.75;2.13;;;;;;;;;;5023106;28;20014;-66
2022/09/07 12:02:42;;;;;;;8.88;2.83;;;;;;;;;;5025360;28;20347;-65
2022/09/07 12:05:33;;;;;;;7.72;2.63;;;;;;;;;;5019300;28;20481;-63
2022/09/07 12:08:34;;;;;;;8.90;3.70;;;;;;;;;;5013164;28;20029;-62
2022/09/07 12:11:20;;;;;;;6.57;2.97;;;;;;;;;;5020467;28;20430;-66
2022/09/07 12:14:24;;;;;;;4.43;2.90;;;;;;;;;;5013573;28;20373;-65
2022/09/07 12:17:32;;;;;;;6.07;3.20;;;;;;;;;;5012842;28;20018;-65
2022/09/07 12:20:18;;;;;;;8.00;3.58;;;;;;;;;;5015889;28;20037;-70
2022/09/07 12:23:06;;;;;;;8.73;3.45;;;;;;;;;;5024392;28;20388;-73
2022/09/07 12:25:51;;;;;;;4.25;2.50;;;;;;;;;;5014953;28;20100;-72
2022/09/07 12:28:37;;;;;;;4.53;1.90;;;;;;;;;;5022094;28;20135;-75
2022/09/07 12:31:45;;;;;;;5.70;2.50;;;;;;;;;;5022485;28;20029;-75
2022/09/07 12:34:31;;;;;;;7.15;2.45;;;;;;;;;;5016605;28;20034;-70
2022/09/07 12:37:25;;;;;;;6.05;2.40;;;;;;;;;;5018331;28;20084;-65
2022/09/07 12:40:26;;;;;;;5.75;2.45;;;;;;;;;;5016998;28;20586;-65
2022/09/07 12:43:12;;;;;;;6.28;2.72;;;;;;;;;;5024302;28;20033;-65
2022/09/07 12:45:59;;;;;;;7.15;2.30;;;;;;;;;;5015145;28;20067;-65
2022/09/07 12:48:48;;;;;;;7.72;2.50;;;;;;;;;;5013308;28;20038;-64
2022/09/07 12:51:35;;;;;;;4.90;2.05;;;;;;;;;;5013940;28;20037;-66
2022/09/07 12:54:20;;;;;;;7.70;2.38;;;;;;;;;;5018413;28;20037;-66
2022/09/07 12:57:24;;;;;;;4.25;1.67;;;;;;;;;;5018373;28;20109;-66
2022/09/07 13:00:10;;;;;;;7.20;2.20;;;;;;;;;;5022029;28;20133;-66
2022/09/07 13:03:20;;;;;;;6.13;2.20;;;;;;;;;;5019070;28;20033;-65
2022/09/07 13:06:05;;;;;;;4.75;2.00;;;;;;;;;;5016817;28;20084;-67
2022/09/07 13:08:54;;;;;;;6.13;2.53;;;;;;;;;;5020197;28;20021;-67
2022/09/07 13:11:39;;;;;;;4.57;2.22;;;;;;;;;;5018153;28;20018;-74
2022/09/07 13:14:26;;;;;;;7.70;2.67;;;;;;;;;;5015523;28;20052;-69
2022/09/07 13:17:30;;;;;;;5.18;2.10;;;;;;;;;;5017778;28;20382;-69
2022/09/07 13:20:17;;;;;;;4.07;2.03;;;;;;;;;;5018999;28;20496;-68
2022/09/07 13:23:09;;;;;;;3.63;1.77;;;;;;;;;;5017429;28;20022;-70
2022/09/07 13:25:56;;;;;;;5.15;1.75;;;;;;;;;;5020104;28;20038;-68
2022/09/07 13:28:54;;;;;;;5.55;1.70;;;;;;;;;;5020389;28;20095;-69
2022/09/07 13:32:05;;;;;;;4.88;1.90;;;;;;;;;;5014882;28;20063;-66
2022/09/07 13:35:05;;;;;;;3.92;1.60;;;;;;;;;;5017052;28;20037;-73
2022/09/07 13:37:53;;;;;;;7.53;3.30;;;;;;;;;;5016943;28;20026;-73
2022/09/07 13:40:43;;;;;;;7.35;2.10;;;;;;;;;;5023750;28;20028;-78
2022/09/07 13:43:29;;;;;;;3.90;1.55;;;;;;;;;;5017928;28;20487;-77
2022/09/07 13:46:29;;;;;;;4.40;1.75;;;;;;;;;;5010787;28;20045;-75
2022/09/07 13:49:25;;;;;;;5.13;1.95;;;;;;;;;;5020340;28;20376;-64
2022/09/07 13:52:14;;;;;;;3.70;2.05;;;;;;;;;;5019895;28;20034;-69
2022/09/07 13:54:59;;;;;;;;;;;;;;;;;;5018827;28;20037;-71
2022/09/07 13:57:52;;;;;;;5.95;1.88;;;;;;;;;;5017578;28;19913;-71
2022/09/07 14:00:58;;;;;;;2.72;1.67;;;;;;;;;;5016801;28;20381;-70
2022/09/07 14:03:51;;;;;;;7.10;1.90;;;;;;;;;;5018359;28;20034;-74
2022/09/07 14:06:37;;;;;;;7.45;2.03;;;;;;;;;;5017451;28;20037;-65
2022/09/07 14:09:22;;;;;;;5.90;1.77;;;;;;;;;;5018924;28;20033;-67
2022/09/07 14:12:13;;;;;;;7.32;1.92;;;;;;;;;;5021358;28;20358;-69
2022/09/07 14:15:07;;;;;;;5.00;1.90;;;;;;;;;;5022527;28;20021;-70
2022/09/07 14:18:01;;;;;;;6.57;2.13;;;;;;;;;;5017318;28;20656;-71
2022/09/07 14:20:48;;;;;;;8.15;2.40;;;;;;;;;;5015500;28;20022;-70
2022/09/07 14:23:35;;;;;;;3.15;1.50;;;;;;;;;;5016484;28;20075;-69
2022/09/07 14:26:21;;;;;;;7.25;1.60;;;;;;;;;;5016939;28;20409;-69
2022/09/07 14:29:19;;;;;;;5.63;1.70;;;;;;;;;;5014477;28;20038;-71
2022/09/07 14:32:08;;;;;;;2.78;1.73;;;;;;;;;;5014980;28;20236;-70
2022/09/07 14:34:54;;;;;;;5.35;1.65;;;;;;;;;;5020103;28;20052;-69
2022/09/07 14:37:40;;;;;;;6.25;2.20;;;;;;;;;;5019352;28;20028;-68
2022/09/07 14:40:26;;;;;;;6.30;2.35;;;;;;;;;;5019538;28;20424;-70
2022/09/07 14:43:44;;;;;;;3.30;1.77;;;;;;;;;;5015307;28;20021;-87
2022/09/07 14:46:32;;;;;;;2.72;1.70;;;;;;;;;;4998840;28;20069;-69
2022/09/07 14:49:19;;;;;;;3.58;1.55;;;;;;;;;;5017970;28;20052;-69
2022/09/07 14:52:05;;;;;;;4.85;1.80;;;;;;;;;;5013342;28;20103;-69
2022/09/07 14:54:51;;;;;;;6.28;2.65;;;;;;;;;;5017301;28;20030;-71
2022/09/07 14:57:37;;;;;;;9.75;1.80;;;;;;;;;;5016134;28;20087;-70
2022/09/07 15:00:28;;;;;;;4.93;1.70;;;;;;;;;;5009740;28;20026;-72
2022/09/07 15:03:30;;;;;;;5.85;2.05;;;;;;;;;;5016998;28;20087;-76
2022/09/07 15:06:30;;;;;;;5.35;2.08;;;;;;;;;;5019405;28;20030;-69
2022/09/07 15:09:48;;;;;;;6.05;1.83;;;;;;;;;;5011946;28;20037;-70
2022/09/07 15:12:40;;;;;;;3.88;1.70;;;;;;;;;;4999217;28;20065;-69
2022/09/07 15:15:35;;;;;;;4.88;1.65;;;;;;;;;;5011637;28;20030;-69
2022/09/07 15:18:39;;;;;;;4.53;1.83;;;;;;;;;;5017421;28;20083;-70
2022/09/07 15:21:26;;;;;;;4.15;1.55;;;;;;;;;;5017617;28;20431;-71
2022/09/07 15:24:12;;;;;;;4.80;2.08;;;;;;;;;;5010737;28;20037;-71
2022/09/07 15:26:57;;;;;;;6.32;2.22;;;;;;;;;;5024599;28;20120;-72
2022/09/07 15:29:43;;;;;;;5.60;1.90;;;;;;;;;;5018671;28;20097;-70
2022/09/07 15:32:29;;;;;;;3.47;2.00;;;;;;;;;;5015815;28;20104;-72
2022/09/07 15:35:15;;;;;;;4.70;1.92;;;;;;;;;;5017023;28;20156;-71
2022/09/07 15:38:00;;;;;;;8.25;2.83;;;;;;;;;;5014556;28;20044;-71
2022/09/07 15:40:48;;;;;;;5.10;1.55;;;;;;;;;;5021442;28;20056;-71
2022/09/07 15:43:33;;;;;;;7.93;2.40;;;;;;;;;;5026762;28;20055;-71
2022/09/07 15:46:19;;;;;;;7.28;2.38;;;;;;;;;;5013737;28;20034;-73
2022/09/07 15:49:05;;;;;;;4.70;1.67;;;;;;;;;;5020411;28;20029;-71
2022/09/07 15:51:50;;;;;;;5.75;2.47;;;;;;;;;;5038192;28;20455;-71
2022/09/07 15:54:36;;;;;;;7.57;2.30;;;;;;;;;;5026686;28;20114;-71
2022/09/07 15:57:22;;;;;;;3.83;1.90;;;;;;;;;;5016718;28;20033;-71
2022/09/07 16:00:07;;;;;;;5.43;1.80;;;;;;;;;;5017830;28;20128;-76
2022/09/07 16:02:53;;;;;;;5.43;1.90;;;;;;;;;;5016117;28;20038;-76
2022/09/07 16:05:39;;;;;;;5.47;2.00;;;;;;;;;;5022307;28;20034;-77
2022/09/07 16:08:27;;;;;;;7.47;2.15;;;;;;;;;;5023949;28;20083;-76
2022/09/07 16:11:14;;;;;;;5.53;1.95;;;;;;;;;;5020911;28;20465;-78
2022/09/07 16:14:01;;;;;;;4.35;1.55;;;;;;;;;;5022590;28;20447;-78
2022/09/07 16:16:46;;;;;;;5.43;2.03;;;;;;;;;;5026190;28;20039;-72
2022/09/07 16:19:32;;;;;;;7.57;1.90;;;;;;;;;;5017285;28;20056;-78
2022/09/07 16:22:17;;;;;;;6.03;2.38;;;;;;;;;;5022191;28;20087;-74
2022/09/07 16:25:03;;;;;;;4.80;2.08;;;;;;;;;;5014068;28;20029;-78
2022/09/07 16:27:49;;;;;;;2.33;1.60;;;;;;;;;;5025969;28;20071;-77
2022/09/07 16:30:37;;;;;;;4.70;1.35;;;;;;;;;;5020490;28;20030;-77
2022/09/07 16:33:23;;;;;;;7.90;2.35;;;;;;;;;;5027886;28;20064;-73
2022/09/07 16:36:10;;;;;;;5.38;1.85;;;;;;;;;;5021669;28;20084;-72
2022/09/07 16:38:57;;;;;;;8.05;2.80;;;;;;;;;;5018355;28;20021;-70
2022/09/07 16:41:43;;;;;;;5.10;2.47;;;;;;;;;;5031677;28;20231;-70
2022/09/07 16:44:28;;;;;;;5.50;2.10;;;;;;;;;;5028322;28;20038;-69
2022/09/07 16:47:14;;;;;;;6.03;2.05;;;;;;;;;;5028425;28;20049;-70
2022/09/07 16:49:59;;;;;;;4.10;1.60;;;;;;;;;;5029673;28;20033;-69
2022/09/07 16:52:45;;;;;;;2.80;1.65;;;;;;;;;;5023944;28;20481;-78
2022/09/07 16:55:31;;;;;;;6.32;2.45;;;;;;;;;;5024272;28;20476;-73